• Join FlightAware (Why Join?)
  • Login
  • US Flag GB Flag 
10:16 EDT


 

Airport Tracker/Info


-or-


 

Live Flight TrackerFlight Track Log ✈ JBU1049 ✈ 07-Jul-2013 ✈ KFLL - MDSD / SDQ

Flight Track Log - Related Links

Times and Time Zones

All times are in EDT time to prevent confusion due to time zone crossing. See the JBU1049 flight status page for this flight to view local times or setup timezone preferences in your user account.

Time Position Orientation Groundspeed Altitude Reporting Facility
EDT Latitude Longitude Course Direction KTS MPH feet Rate Location/Type
22:58 26.0790 -80.1170 82° East 162 186 1,400  Level FlightAware
22:59 26.0820 -80.0920 82° East 193 222 2,000 1,320 Climbing FlightAware
22:59 26.0830 -80.0750 86° East 211 243 2,400 1,200 Climbing FlightAware
22:59 26.0820 -80.0610 95° East 234 269 2,600 2,040 Climbing FlightAware
23:00 26.0760 -80.0280 101° East 250 288 3,800 3,000 Climbing FlightAware
23:00 26.0700 -79.9950 101° East 257 296 5,200 3,480 Climbing FlightAware
23:01 26.0650 -79.9640 100° East 259 298 6,600 3,480 Climbing FlightAware
23:01 26.0620 -79.9440 99° East 257 296 7,500 3,180 Climbing FlightAware
23:01 26.0560 -79.9040 99° East 262 302 9,000 2,580 Climbing FlightAware
23:02 26.0480 -79.8520 100° East 280 322 10,500 1,620 Climbing FlightAware
23:03 26.0380 -79.7870 100° East 328 377 11,200 1,560 Climbing FlightAware
23:03 26.0270 -79.7120 99° East 342 394 12,800 2,100 Climbing FlightAware
23:04 26.0160 -79.6420 100° East 353 406 14,200 1,980 Climbing FlightAware
23:05 25.9940 -79.5590 106° East 372 428 15,700 1,860 Climbing FlightAware
23:06 25.9600 -79.4870 118° Southeast 381 438 16,900 1,740 Climbing FlightAware
23:06 25.9280 -79.4180 117° Southeast 389 448 18,100 1,860 Climbing FlightAware
23:07 25.8930 -79.3430 117° Southeast 390 449 19,500 1,740 Climbing FlightAware
23:08 25.8550 -79.2630 118° Southeast 401 461 20,600 1,500 Climbing FlightAware
23:08 25.8200 -79.1890 118° Southeast 407 468 21,600 1,380 Climbing FlightAware
23:09 25.7820 -79.1120 119° Southeast 415 478 22,500 1,320 Climbing FlightAware
23:10 25.7450 -79.0360 118° Southeast 422 486 23,400 1,320 Climbing FlightAware
23:10 25.7020 -78.9470 118° Southeast 429 494 24,400 1,260 Climbing FlightAware
23:11 25.6630 -78.8630 117° Southeast 434 499 25,300 1,320 Climbing FlightAware
23:12 25.6280 -78.7900 118° Southeast 436 502 26,200 1,080 Climbing FlightAware
23:12 25.5940 -78.7170 117° Southeast 446 513 26,700 840 Climbing FlightAware
23:13 25.5550 -78.6390 119° Southeast 455 524 27,300 1,020 Climbing FlightAware
23:14 25.5070 -78.5600 124° Southeast 461 531 28,100 900 Climbing FlightAware
23:14 25.4650 -78.4900 124° Southeast 468 539 28,500 900 Climbing FlightAware
23:15 25.4100 -78.4000 124° Southeast 469 540 29,300 960 Climbing FlightAware
23:16 25.3650 -78.3260 124° Southeast 471 542 29,900 960 Climbing FlightAware
23:17 25.3100 -78.2360 124° Southeast 472 543 30,700 1,200 Climbing FlightAware
23:17 25.2590 -78.1510 124° Southeast 468 539 31,600 1,260 Climbing FlightAware
23:18 25.1890 -78.0380 124° Southeast 469 540 32,700 960 Climbing FlightAware
23:19 25.1460 -77.9670 124° Southeast 467 537 33,200 360 Climbing FlightAware
23:19 25.1080 -77.9030 123° Southeast 467 537 33,200  Level FlightAware
23:20 25.0600 -77.8210 123° Southeast 467 537 33,200  Level FlightAware
23:21 25.0240 -77.7600 123° Southeast 467 537 33,200  Level FlightAware
23:21 24.9870 -77.6970 123° Southeast 467 537 33,200  Level FlightAware
23:22 24.9510 -77.6360 123° Southeast 467 537 33,200  Level FlightAware
23:23 24.9030 -77.5540 123° Southeast 467 537 33,200  Level FlightAware
23:23 24.8670 -77.4930 123° Southeast 467 537 33,200  Level FlightAware
23:24 24.8180 -77.4100 123° Southeast 467 537 33,200  Level FlightAware
23:25 24.7820 -77.3490 123° Southeast 467 537 33,200  Level FlightAware
23:26 24.7350 -77.2690 123° Southeast 467 537 33,200  Level FlightAware
23:26 24.6990 -77.2080 123° Southeast 467 537 33,200  Level FlightAware
23:27 24.6620 -77.1460 123° Southeast 467 537 33,200  Level FlightAware
23:28 24.6160 -77.0680 123° Southeast 467 537 33,200  Level FlightAware
23:28 24.5800 -77.0070 123° Southeast 467 537 33,200 3,120 Level FlightAware
23:29 24.4125 -76.7881 123° Southeast 470 541 37,000 2,280 Climbing Miami Center
23:30 24.3372 -76.6719 125° Southeast 470 541 37,000  Level Miami Center
23:31 24.2553 -76.5442 125° Southeast 470 541 37,000  Level Miami Center
23:32 24.1819 -76.4283 125° Southeast 470 541 37,000  Level Miami Center
23:33 24.1083 -76.3103 124° Southeast 470 541 37,000  Level Miami Center
23:34 24.0347 -76.1922 124° Southeast 475 547 37,000  Level Miami Center
23:35 23.9569 -76.0719 125° Southeast 475 547 37,000  Level Miami Center
23:36 23.8831 -75.9567 125° Southeast 467 537 37,000  Level Miami Center
23:37 23.8092 -75.8344 123° Southeast 474 545 37,000  Level Miami Center
23:38 23.7331 -75.7172 125° Southeast 474 545 37,000  Level Miami Center
23:39 23.6589 -75.5953 124° Southeast 479 551 37,000  Level Miami Center
23:40 23.5806 -75.4736 125° Southeast 484 557 37,000  Level Miami Center
23:41 23.5000 -75.3544 126° Southeast 484 557 37,000  Level Miami Center
23:42 23.4214 -75.2353 126° Southeast 484 557 37,000  Level Miami Center
23:43 23.3447 -75.1164 125° Southeast 484 557 37,000  Level Miami Center
23:44 23.2661 -74.9956 125° Southeast 484 557 37,000  Level Miami Center
23:45 23.1958 -74.8881 125° Southeast 489 563 37,000  Level Miami Center
23:46 23.1169 -74.7694 126° Southeast 489 563 37,000  Level Miami Center
23:47 23.0358 -74.6489 126° Southeast 489 563 37,000  Level Miami Center
23:48 22.9586 -74.5283 125° Southeast 489 563 37,000  Level Miami Center
23:49 22.8772 -74.4058 126° Southeast 489 563 37,000  Level Miami Center
23:50 22.8022 -74.2903 125° Southeast 484 557 37,100  Climbing Miami Center
23:51 22.7208 -74.1681 126° Southeast 489 563 37,000 -60 Descending Miami Center
23:52 22.6414 -74.0525 127° Southeast 489 563 37,000 -60 Level Miami Center
23:53 22.5639 -73.9328 125° Southeast 489 563 36,900  Descending Miami Center
23:54 22.4864 -73.8156 126° Southeast 489 563 37,000  Climbing Miami Center
23:55 22.4025 -73.6961 127° Southeast 489 563 37,000  Level Miami Center
23:56 22.3228 -73.5744 125° Southeast 494 568 37,100  Climbing Miami Center
23:57 22.2383 -73.4467 126° Southeast 488 562 37,000 -60 Descending Miami Center
23:58 22.1606 -73.3297 126° Southeast 482 555 37,000  Level Miami Center
23:59 22.0783 -73.2089 126° Southeast 488 562 37,000  Level Miami Center
00:00 21.9961 -73.0903 127° Southeast 493 567 37,000  Level Miami Center
00:01 21.9158 -72.9694 126° Southeast 493 567 37,000  Level Miami Center
00:02 21.8356 -72.8511 126° Southeast 493 567 37,000  Level Miami Center
00:03 21.7553 -72.7328 126° Southeast 493 567 37,000  Level Miami Center
00:04 21.6769 -72.6169 126° Southeast 487 560 37,000  Level Miami Center
00:05 21.5964 -72.4989 126° Southeast 487 560 37,000  Level Miami Center
00:06 21.5158 -72.3833 127° Southeast 487 560 37,000  Level Miami Center
00:07 21.4372 -72.2658 126° Southeast 487 560 37,000  Level Miami Center
00:08 21.3564 -72.1503 127° Southeast 487 560 37,000  Level Miami Center
00:09 21.2778 -72.0331 126° Southeast 487 560 37,000  Level Miami Center
00:10 21.1969 -71.9181 127° Southeast 487 560 37,000  Level Miami Center
00:11 21.1158 -71.8008 127° Southeast 487 560 37,000  Level Miami Center
00:12 21.0350 -71.6839 127° Southeast 487 560 37,000  Level Miami Center
00:13 20.9336 -71.5903 139° Southeast 482 555 37,000  Level Miami Center
00:14 20.8347 -71.5031 140° Southeast 471 542 37,000  Level Miami Center
00:15 20.7358 -71.4139 140° Southeast 471 542 37,000  Level Miami Center
00:16 20.6367 -71.3247 140° Southeast 466 536 37,000  Level Miami Center
00:17 20.5378 -71.2381 141° Southeast 466 536 37,000  Level Miami Center
00:18 20.4364 -71.1492 141° Southeast 466 536 37,000  Level Miami Center
00:20 20.2843 -71.0182 138° Southeast  Level FlightAware Approximate
00:27 19.6606 -70.4427 131° Southeast  Level FlightAware Approximate
00:28 19.5825 -70.3489 131° Southeast  Level FlightAware Approximate
00:29 19.5043 -70.2551 131° Southeast  Level FlightAware Approximate
00:30 19.4307 -70.1574 128° Southeast  Level FlightAware Approximate
00:31 19.3573 -70.0594 128° Southeast  Level FlightAware Approximate
00:32 19.2838 -69.9616 128° Southeast  Level FlightAware Approximate
00:33 19.1891 -69.8967 164° South  Level FlightAware Approximate
00:34 19.0756 -69.8627 164° South  Level FlightAware Approximate
00:35 18.9622 -69.8281 164° South  Level FlightAware Approximate
00:36 18.8489 -69.7933 164° South  Level FlightAware Approximate
00:37 18.7362 -69.7565 162° South  Level FlightAware Approximate
00:38 18.6245 -69.7165 159° South  Level FlightAware Approximate
00:39 18.5107 -69.6855 169° South  Level FlightAware Approximate
00:40 18.4297 -69.6689 159° South  Level Estimated
00:41 18.4297 -69.6689 159° South  Level Estimated
00:42 18.4297 -69.6689 159° South  Level Estimated
00:43 18.4297 -69.6689 159° South  Level Estimated
00:44 18.4297 -69.6689 159° South  Level Estimated
00:45 18.4297 -69.6689 159° South  Level Estimated
00:46 18.4297 -69.6689 159° South  Level Estimated
00:47 18.4297 -69.6689 159° South  Level Estimated
00:48 18.4297 -69.6689 159° South  Level Estimated
00:49 18.4297 -69.6689 159° South  Level Estimated
00:50 18.4297 -69.6689 159° South  Level Estimated
00:51 18.4297 -69.6689 159° South  Level Estimated
00:52 18.4297 -69.6689 159° South  Level Estimated
00:53 18.4297 -69.6689 159° South  Level Estimated
00:54 18.4297 -69.6689 159° South  Level Estimated
00:55 18.4297 -69.6689 159° South  Level Estimated
00:56 18.4297 -69.6689 159° South  Level Estimated